Time;durP1;ratioP1;P1;durP2;ratioP2;P2;SDS_P1;SDS_P2;PMS_P1;PMS_P2;Temp;Humidity;BMP_temperature;BMP_pressure;BME280_temperature;BME280_humidity;BME280_pressure;Samples;Min_cycle;Max_cycle;Signal;HPM_P1;HPM_P2
2022/07/01 00:01:07;;;;;;;6.72;1.42;;;11.00;99.90;;;;;;4975202;28;20855;-76
2022/07/01 00:03:34;;;;;;;5.57;1.70;;;10.80;99.90;;;;;;4963213;28;20061;-77
2022/07/01 00:05:59;;;;;;;7.25;1.55;;;10.80;99.90;;;;;;4960737;28;20625;-77
2022/07/01 00:08:25;;;;;;;6.90;2.08;;;10.70;99.90;;;;;;4966303;28;20077;-76
2022/07/01 00:10:51;;;;;;;4.10;1.55;;;10.60;99.90;;;;;;4969311;28;20099;-76
2022/07/01 00:13:16;;;;;;;3.45;1.42;;;10.60;99.90;;;;;;4963279;28;20102;-77
2022/07/01 00:15:42;;;;;;;5.72;1.33;;;10.60;99.90;;;;;;4967968;28;20048;-77
2022/07/01 00:18:07;;;;;;;5.22;2.08;;;10.50;99.90;;;;;;4964766;28;20037;-76
2022/07/01 00:20:33;;;;;;;5.53;1.60;;;10.50;99.90;;;;;;4979860;28;20578;-76
2022/07/01 00:22:59;;;;;;;5.50;1.70;;;10.50;99.90;;;;;;4970053;28;20160;-77
2022/07/01 00:25:24;;;;;;;6.75;2.00;;;10.40;99.90;;;;;;4956300;28;20026;-76
2022/07/01 00:27:50;;;;;;;4.38;1.70;;;10.40;99.90;;;;;;4960415;28;20035;-77
2022/07/01 00:30:16;;;;;;;4.40;1.80;;;10.40;99.90;;;;;;4973091;28;20031;-76
2022/07/01 00:32:41;;;;;;;4.15;1.55;;;10.40;99.90;;;;;;4971006;28;20213;-77
2022/07/01 00:35:09;;;;;;;7.22;1.67;;;10.40;99.90;;;;;;4963352;28;20031;-77
2022/07/01 00:37:34;;;;;;;7.05;2.55;;;10.40;99.90;;;;;;4979907;28;21075;-77
2022/07/01 00:40:00;;;;;;;6.57;2.30;;;10.30;99.90;;;;;;4978665;28;20125;-77
2022/07/01 00:42:26;;;;;;;6.97;1.92;;;10.30;99.90;;;;;;4980015;28;20034;-76
2022/07/01 00:44:52;;;;;;;6.05;1.88;;;10.30;99.90;;;;;;4983696;28;20037;-76
2022/07/01 00:47:17;;;;;;;5.90;1.55;;;10.20;99.90;;;;;;4978980;28;20397;-77
2022/07/01 00:49:43;;;;;;;6.57;1.60;;;10.20;99.90;;;;;;4965080;28;20173;-77
2022/07/01 00:52:09;;;;;;;6.57;1.80;;;10.10;99.90;;;;;;4964433;28;20031;-76
2022/07/01 00:54:37;;;;;;;6.18;1.77;;;10.00;99.90;;;;;;4964312;28;20495;-75
2022/07/01 00:57:10;;;;;;;6.40;1.80;;;9.90;99.90;;;;;;4968191;28;20475;-76
2022/07/01 00:59:39;;;;;;;7.20;3.60;;;9.80;99.90;;;;;;4964382;28;20054;-76
2022/07/01 01:02:07;;;;;;;5.38;1.80;;;9.80;99.90;;;;;;4967819;28;20030;-76
2022/07/01 01:04:33;;;;;;;8.50;1.92;;;9.80;99.90;;;;;;4978131;28;20038;-76
2022/07/01 01:07:01;;;;;;;5.40;3.92;;;9.80;99.90;;;;;;4961550;28;20129;-76
2022/07/01 01:09:27;;;;;;;7.32;2.28;;;9.80;99.90;;;;;;4963302;28;20097;-76
2022/07/01 01:11:53;;;;;;;7.45;1.88;;;9.80;99.90;;;;;;4966372;28;20118;-76
2022/07/01 01:14:19;;;;;;;6.00;2.25;;;9.90;99.90;;;;;;4966115;28;20399;-76
2022/07/01 01:16:44;;;;;;;6.75;2.03;;;10.00;99.90;;;;;;4974662;28;20022;-75
2022/07/01 01:19:10;;;;;;;6.63;2.33;;;10.10;99.90;;;;;;4963752;28;20486;-77
2022/07/01 01:21:36;;;;;;;6.88;2.53;;;10.20;99.90;;;;;;4964154;28;20061;-77
2022/07/01 01:24:02;;;;;;;6.68;2.55;;;10.30;99.90;;;;;;4969765;28;20035;-77
2022/07/01 01:26:28;;;;;;;8.60;2.20;;;10.40;99.90;;;;;;4965403;28;20795;-77
2022/07/01 01:28:53;;;;;;;5.72;1.83;;;10.40;99.90;;;;;;4962713;28;20031;-78
2022/07/01 01:31:29;;;;;;;5.65;2.10;;;10.50;99.90;;;;;;4978360;28;20484;-76
2022/07/01 01:33:55;;;;;;;6.68;2.53;;;10.40;99.90;;;;;;4963982;28;20113;-77
2022/07/01 01:36:20;;;;;;;4.38;2.10;;;10.40;99.90;;;;;;4960717;28;20110;-77
2022/07/01 01:38:46;;;;;;;9.75;2.28;;;10.30;99.90;;;;;;4965301;28;20034;-77
2022/07/01 01:41:12;;;;;;;5.93;2.35;;;10.20;99.90;;;;;;4965874;28;20035;-77
2022/07/01 01:43:37;;;;;;;8.65;3.00;;;10.20;99.90;;;;;;4972100;28;20091;-77
2022/07/01 01:46:04;;;;;;;4.13;2.15;;;10.20;99.90;;;;;;4975246;28;20042;-78
2022/07/01 01:48:30;;;;;;;6.05;2.35;;;10.30;99.90;;;;;;4964368;28;20072;-77
2022/07/01 01:50:57;;;;;;;9.05;2.38;;;10.30;99.90;;;;;;4965892;28;20569;-77
2022/07/01 01:53:23;;;;;;;8.77;1.90;;;10.30;99.90;;;;;;4960648;28;20489;-77
2022/07/01 01:55:49;;;;;;;3.05;1.58;;;10.20;99.90;;;;;;4965118;28;20030;-77
2022/07/01 01:58:15;;;;;;;2.55;1.70;;;10.30;99.90;;;;;;4959009;28;20038;-77
2022/07/01 02:00:41;;;;;;;8.52;2.22;;;10.30;99.90;;;;;;4965668;28;20394;-77
2022/07/01 02:03:06;;;;;;;7.35;2.72;;;10.40;99.90;;;;;;4968652;28;20034;-77
2022/07/01 02:05:35;;;;;;;7.03;2.13;;;10.40;99.90;;;;;;4963678;28;20532;-77
2022/07/01 02:08:01;;;;;;;3.55;1.20;;;10.40;99.90;;;;;;4973009;28;20049;-77
2022/07/01 02:10:27;;;;;;;4.20;1.85;;;10.30;99.90;;;;;;4973463;28;20031;-77
2022/07/01 02:12:52;;;;;;;3.70;1.50;;;10.30;99.90;;;;;;4968237;28;20110;-77
2022/07/01 02:15:18;;;;;;;4.15;1.67;;;10.20;99.90;;;;;;4966849;28;20474;-77
2022/07/01 02:17:44;;;;;;;6.43;1.40;;;10.00;99.90;;;;;;4966593;28;20049;-77
2022/07/01 02:20:10;;;;;;;5.18;1.67;;;10.00;99.90;;;;;;4974822;28;20035;-77
2022/07/01 02:22:36;;;;;;;3.25;2.00;;;9.80;99.90;;;;;;4961715;28;20357;-77
2022/07/01 02:25:01;;;;;;;5.15;1.50;;;9.70;99.90;;;;;;4965417;28;20624;-78
2022/07/01 02:27:27;;;;;;;8.68;1.60;;;9.60;99.90;;;;;;4972680;28;20043;-76
2022/07/01 02:29:53;;;;;;;4.03;2.03;;;9.60;99.90;;;;;;4971847;28;20030;-77
2022/07/01 02:32:19;;;;;;;4.60;1.42;;;9.50;99.90;;;;;;4967156;28;20038;-77
2022/07/01 02:34:45;;;;;;;5.20;1.73;;;9.40;99.90;;;;;;4963167;28;20129;-77
2022/07/01 02:37:10;;;;;;;4.35;2.42;;;9.40;99.90;;;;;;4968424;28;20601;-76
2022/07/01 02:39:36;;;;;;;6.18;2.13;;;9.50;99.90;;;;;;4966379;28;20183;-76
2022/07/01 02:44:46;;;;;;;2.58;1.80;;;9.50;99.90;;;;;;4968353;28;20768;-76
2022/07/01 02:47:11;;;;;;;4.13;2.20;;;9.60;99.90;;;;;;4971057;28;20046;-77
2022/07/01 02:49:39;;;;;;;3.45;1.70;;;9.60;99.90;;;;;;4971827;28;20141;-77
2022/07/01 02:52:05;;;;;;;5.50;1.80;;;9.50;99.90;;;;;;4971557;28;20971;-77
2022/07/01 02:54:30;;;;;;;2.60;1.85;;;9.50;99.90;;;;;;4971184;28;20038;-77
2022/07/01 02:56:56;;;;;;;2.08;1.95;;;9.40;99.90;;;;;;4975725;28;20133;-77
2022/07/01 02:59:21;;;;;;;2.25;1.80;;;9.30;99.90;;;;;;4972239;28;20104;-77
2022/07/01 03:01:47;;;;;;;2.70;1.73;;;9.20;99.90;;;;;;4981562;28;20030;-78
2022/07/01 03:04:13;;;;;;;3.75;2.08;;;9.20;99.90;;;;;;4969919;28;20514;-77
2022/07/01 03:06:38;;;;;;;4.80;2.20;;;9.10;99.90;;;;;;4962498;28;20057;-77
2022/07/01 03:09:04;;;;;;;3.05;1.63;;;9.00;99.90;;;;;;4961934;28;20030;-77
2022/07/01 03:11:30;;;;;;;9.20;2.60;;;9.00;99.90;;;;;;4962252;28;20037;-76
2022/07/01 03:13:55;;;;;;;3.97;1.92;;;8.90;99.90;;;;;;4975639;28;20480;-77
2022/07/01 03:16:21;;;;;;;4.07;2.00;;;8.90;99.90;;;;;;4975710;28;20074;-77
2022/07/01 03:18:46;;;;;;;7.80;2.30;;;8.90;99.90;;;;;;4981439;28;20049;-77
2022/07/01 03:21:12;;;;;;;5.38;2.08;;;8.90;99.90;;;;;;4977124;28;20030;-77
2022/07/01 03:23:38;;;;;;;4.75;2.35;;;8.90;99.90;;;;;;4977089;28;20038;-76
2022/07/01 03:26:03;;;;;;;2.10;1.98;;;8.90;99.90;;;;;;4962231;28;20031;-77
2022/07/01 03:28:31;;;;;;;3.55;2.33;;;8.90;99.90;;;;;;4968682;28;20034;-77
2022/07/01 03:30:57;;;;;;;4.20;2.38;;;8.90;99.90;;;;;;4962496;28;20027;-77
2022/07/01 03:33:22;;;;;;;6.72;2.33;;;8.90;99.90;;;;;;4962167;28;20045;-77
2022/07/01 03:35:48;;;;;;;6.50;2.35;;;8.90;99.90;;;;;;4964424;28;20109;-77
2022/07/01 03:38:14;;;;;;;9.23;2.58;;;8.90;99.90;;;;;;4969815;28;20038;-77
2022/07/01 03:40:40;;;;;;;7.82;2.40;;;9.00;99.90;;;;;;4965092;28;20506;-77
2022/07/01 03:43:05;;;;;;;6.22;2.40;;;9.10;99.90;;;;;;4961613;28;20545;-76
2022/07/01 03:45:31;;;;;;;2.97;2.35;;;9.10;99.90;;;;;;4968776;28;20022;-77
2022/07/01 03:47:57;;;;;;;4.30;2.20;;;9.20;99.90;;;;;;4980250;28;20104;-76
2022/07/01 03:50:24;;;;;;;3.92;2.00;;;9.30;99.90;;;;;;4975926;28;20026;-77
2022/07/01 03:55:35;;;;;;;5.43;2.20;;;9.30;99.90;;;;;;4978905;28;20041;-77
2022/07/01 03:58:01;;;;;;;4.75;2.40;;;9.20;99.90;;;;;;4974831;28;20026;-76
2022/07/01 04:00:28;;;;;;;4.50;2.15;;;9.20;99.90;;;;;;4977951;28;20056;-77
2022/07/01 04:02:53;;;;;;;5.47;2.22;;;9.10;99.90;;;;;;4979433;28;20057;-77
2022/07/01 04:05:19;;;;;;;3.70;1.95;;;9.10;99.90;;;;;;4975419;28;20588;-77
2022/07/01 04:07:45;;;;;;;4.72;1.85;;;9.10;99.90;;;;;;4966617;28;20133;-76
2022/07/01 04:10:11;;;;;;;3.25;1.92;;;9.10;99.90;;;;;;4978592;28;20039;-77
2022/07/01 04:12:37;;;;;;;2.38;1.83;;;9.20;99.90;;;;;;4966674;28;20049;-77
2022/07/01 04:15:03;;;;;;;7.22;2.10;;;9.10;99.90;;;;;;4976866;28;20023;-77
2022/07/01 04:17:28;;;;;;;3.05;1.55;;;9.10;99.90;;;;;;4970962;28;20027;-77
2022/07/01 04:19:54;;;;;;;4.70;2.30;;;9.10;99.90;;;;;;4962008;28;20132;-77
2022/07/01 04:22:38;;;;;;;2.05;1.65;;;9.00;99.90;;;;;;4970387;28;20041;-74
2022/07/01 04:25:04;;;;;;;4.60;2.10;;;8.90;99.90;;;;;;4980833;28;20397;-76
2022/07/01 04:27:31;;;;;;;3.08;2.00;;;8.90;99.90;;;;;;4973106;28;20062;-76
2022/07/01 04:29:56;;;;;;;2.95;2.13;;;8.90;99.90;;;;;;4969820;28;20042;-76
2022/07/01 04:32:23;;;;;;;4.43;2.42;;;8.90;99.90;;;;;;4963098;28;20038;-74
2022/07/01 04:34:48;;;;;;;3.70;2.38;;;8.90;99.90;;;;;;4961704;28;20092;-75
2022/07/01 04:37:14;;;;;;;4.25;2.25;;;8.90;99.90;;;;;;4968961;28;20113;-76
2022/07/01 04:39:40;;;;;;;2.88;2.17;;;8.90;99.90;;;;;;4973653;28;20030;-76
2022/07/01 04:42:06;;;;;;;9.13;4.05;;;8.80;99.90;;;;;;4963073;28;20062;-75
2022/07/01 04:44:33;;;;;;;3.58;2.72;;;8.80;99.90;;;;;;4962034;28;20173;-76
2022/07/01 04:47:00;;;;;;;8.85;3.33;;;8.90;99.90;;;;;;4971732;28;20157;-75
2022/07/01 04:49:27;;;;;;;7.45;3.47;;;8.90;99.90;;;;;;4962075;28;20027;-75
2022/07/01 04:51:53;;;;;;;9.90;4.68;;;8.90;99.90;;;;;;4962843;28;20027;-74
2022/07/01 04:54:19;;;;;;;11.05;3.88;;;9.10;99.90;;;;;;4961285;28;20037;-76
2022/07/01 04:56:45;;;;;;;4.53;2.88;;;9.20;99.90;;;;;;4964117;28;20026;-75
2022/07/01 04:59:12;;;;;;;2.78;2.03;;;9.30;99.90;;;;;;4970149;28;20034;-76
2022/07/01 05:01:38;;;;;;;6.68;2.25;;;9.40;99.90;;;;;;4973548;28;20402;-76
2022/07/01 05:04:03;;;;;;;3.33;1.92;;;9.40;99.90;;;;;;4970122;28;20514;-76
2022/07/01 05:06:29;;;;;;;2.78;1.90;;;9.50;99.90;;;;;;4976778;28;20030;-76
2022/07/01 05:08:55;;;;;;;6.40;2.22;;;9.50;99.90;;;;;;4974405;28;20032;-76
2022/07/01 05:11:21;;;;;;;3.70;2.35;;;9.50;99.90;;;;;;4976446;28;20026;-76
2022/07/01 05:13:47;;;;;;;2.70;1.75;;;9.50;99.90;;;;;;4968433;28;20129;-76
2022/07/01 05:16:12;;;;;;;3.55;2.15;;;9.60;99.90;;;;;;4962007;28;20145;-76
2022/07/01 05:24:07;;;;;;;6.03;2.15;;;9.60;99.90;;;;;;4963299;28;20146;-76
2022/07/01 05:26:34;;;;;;;3.90;1.88;;;9.70;99.90;;;;;;4971387;28;20050;-76
2022/07/01 05:28:59;;;;;;;6.15;1.90;;;9.70;99.90;;;;;;4975957;28;20113;-76
2022/07/01 05:31:25;;;;;;;3.63;2.03;;;9.80;99.90;;;;;;4980002;28;20478;-76
2022/07/01 05:33:51;;;;;;;2.63;1.77;;;9.80;99.90;;;;;;4981057;28;20112;-76
2022/07/01 05:36:17;;;;;;;3.25;2.00;;;9.90;99.90;;;;;;4980220;28;20068;-76
2022/07/01 05:38:42;;;;;;;5.18;2.13;;;10.00;99.90;;;;;;4967625;28;20037;-76
2022/07/01 05:41:08;;;;;;;4.20;1.88;;;10.10;99.90;;;;;;4965532;28;20048;-76
2022/07/01 05:43:34;;;;;;;7.55;2.03;;;10.20;99.90;;;;;;4970772;28;20023;-76
2022/07/01 05:46:00;;;;;;;5.78;2.55;;;10.30;99.90;;;;;;4960216;28;20113;-77
2022/07/01 05:48:26;;;;;;;6.03;2.30;;;10.40;99.90;;;;;;4961157;28;20053;-76
2022/07/01 05:50:52;;;;;;;7.53;2.30;;;10.50;99.90;;;;;;4966878;28;20331;-76
2022/07/01 05:53:18;;;;;;;7.85;2.95;;;10.60;99.90;;;;;;4965261;28;20521;-76
2022/07/01 05:55:43;;;;;;;5.65;2.50;;;10.80;99.90;;;;;;4965184;28;20027;-75
2022/07/01 05:58:13;;;;;;;3.08;2.38;;;10.90;99.90;;;;;;4968833;28;20053;-75
2022/07/01 06:00:42;;;;;;;5.95;2.70;;;11.00;99.90;;;;;;4963212;28;20450;-76
2022/07/01 06:03:12;;;;;;;4.40;2.10;;;11.20;99.90;;;;;;4971216;28;20151;-75
2022/07/01 06:05:38;;;;;;;6.78;2.40;;;11.30;99.90;;;;;;4964374;28;20341;-76
2022/07/01 06:08:05;;;;;;;6.47;2.50;;;11.40;99.90;;;;;;4963987;28;20095;-75
2022/07/01 06:10:31;;;;;;;12.38;5.70;;;11.50;99.90;;;;;;4962583;28;20096;-75
2022/07/01 06:12:57;;;;;;;27.27;15.32;;;11.60;99.90;;;;;;4964077;28;20405;-77
2022/07/01 06:15:23;;;;;;;14.95;8.55;;;11.70;99.90;;;;;;4977297;28;20057;-76
2022/07/01 06:17:49;;;;;;;8.95;3.75;;;11.80;99.90;;;;;;4972200;28;20125;-76
2022/07/01 06:20:15;;;;;;;5.80;3.38;;;12.00;99.90;;;;;;4968020;28;20022;-76
2022/07/01 06:22:41;;;;;;;7.28;2.65;;;12.10;99.90;;;;;;4966510;28;20092;-76
2022/07/01 06:25:07;;;;;;;5.38;2.83;;;12.30;99.90;;;;;;4961188;28;20142;-77
2022/07/01 06:27:41;;;;;;;13.45;8.27;;;12.30;99.90;;;;;;4959819;28;20493;-76
2022/07/01 06:30:07;;;;;;;5.45;1.98;;;12.50;99.90;;;;;;4962604;28;20037;-76
2022/07/01 06:32:33;;;;;;;2.88;1.95;;;12.60;99.90;;;;;;4960145;28;20069;-75
2022/07/01 06:34:59;;;;;;;4.65;1.58;;;12.70;99.90;;;;;;4964531;28;20455;-83
2022/07/01 06:37:24;;;;;;;2.63;1.80;;;12.80;99.90;;;;;;4966187;28;20034;-82
2022/07/01 06:39:50;;;;;;;2.05;1.75;;;12.90;99.90;;;;;;4972655;28;20038;-80
2022/07/01 06:42:15;;;;;;;5.95;2.40;;;13.00;99.90;;;;;;4971930;28;20034;-79
2022/07/01 06:44:41;;;;;;;16.40;8.80;;;13.10;99.90;;;;;;4975717;28;20156;-80
2022/07/01 06:47:07;;;;;;;6.50;2.80;;;13.20;99.90;;;;;;4967518;28;20049;-79
2022/07/01 06:49:33;;;;;;;6.80;2.40;;;13.30;99.90;;;;;;4960154;28;20094;-79
2022/07/01 06:51:59;;;;;;;2.55;1.70;;;13.40;99.90;;;;;;4963128;28;20034;-88
2022/07/01 06:54:24;;;;;;;5.55;1.70;;;13.50;99.90;;;;;;4963298;28;20406;-79
2022/07/01 06:56:50;;;;;;;9.27;1.67;;;13.60;99.90;;;;;;4962505;28;20437;-81
2022/07/01 06:59:16;;;;;;;47.05;33.75;;;13.70;99.90;;;;;;4957142;28;20022;-80
2022/07/01 07:01:42;;;;;;;3.90;2.10;;;13.80;99.90;;;;;;4959094;28;20507;-79
2022/07/01 07:04:08;;;;;;;1.58;1.48;;;13.90;99.90;;;;;;4958716;28;20030;-78
2022/07/01 07:06:33;;;;;;;3.50;1.50;;;14.00;99.90;;;;;;4957934;28;20355;-80
2022/07/01 07:08:59;;;;;;;3.83;1.30;;;14.10;99.90;;;;;;4960301;28;20026;-81
2022/07/01 07:11:25;;;;;;;3.72;1.10;;;14.20;99.90;;;;;;4959816;28;20211;-79
2022/07/01 07:13:50;;;;;;;12.82;7.68;;;14.30;99.90;;;;;;4962241;28;20027;-79
2022/07/01 07:16:20;;;;;;;3.60;1.83;;;14.40;99.90;;;;;;4967805;28;20061;-79
2022/07/01 07:18:49;;;;;;;1.65;1.45;;;14.50;99.90;;;;;;4966869;28;20037;-79
2022/07/01 07:21:15;;;;;;;2.92;1.02;;;14.50;99.90;;;;;;4960322;28;20424;-79
2022/07/01 07:23:42;;;;;;;1.75;0.90;;;14.70;99.90;;;;;;4957671;28;20095;-79
2022/07/01 07:26:08;;;;;;;2.67;1.17;;;14.90;99.90;;;;;;4959394;28;20269;-79
2022/07/01 07:28:33;;;;;;;6.40;1.10;;;15.00;99.90;;;;;;4956546;28;20498;-80
2022/07/01 07:30:59;;;;;;;35.25;19.35;;;15.10;99.90;;;;;;4963163;28;20785;-81
2022/07/01 07:33:25;;;;;;;4.43;1.75;;;15.60;99.90;;;;;;4964440;28;20641;-79
2022/07/01 07:35:50;;;;;;;6.22;1.33;;;17.10;99.90;;;;;;4953175;28;20033;-78
2022/07/01 07:38:16;;;;;;;2.65;0.73;;;21.60;99.90;;;;;;4962941;28;21709;-80
2022/07/01 07:40:41;;;;;;;3.28;0.98;;;23.50;97.40;;;;;;4963564;28;20026;-82
2022/07/01 07:43:07;;;;;;;1.88;0.30;;;27.10;65.30;;;;;;4973496;28;20034;-84
2022/07/01 07:45:33;;;;;;;4.40;0.70;;;27.50;53.60;;;;;;4974736;28;20916;-83
2022/07/01 07:48:00;;;;;;;3.63;0.45;;;28.40;50.60;;;;;;4985345;28;20484;-83
2022/07/01 07:50:26;;;;;;;3.60;0.70;;;27.80;49.50;;;;;;4982501;28;20080;-82
2022/07/01 07:52:52;;;;;;;2.13;0.82;;;28.60;50.50;;;;;;4986711;28;20113;-82
2022/07/01 07:55:17;;;;;;;1.98;0.45;;;26.30;55.70;;;;;;4987246;28;20136;-81
2022/07/01 07:57:43;;;;;;;2.47;0.70;;;25.20;62.70;;;;;;4983055;28;20553;-84
2022/07/01 08:00:11;;;;;;;2.17;0.65;;;25.70;66.30;;;;;;4982663;28;20034;-82
2022/07/01 08:02:37;;;;;;;3.33;0.60;;;25.90;58.10;;;;;;4980901;28;20101;-83
2022/07/01 08:05:03;;;;;;;1.92;0.40;;;25.90;56.90;;;;;;4976718;28;20058;-84
2022/07/01 08:07:29;;;;;;;1.65;0.40;;;24.20;64.70;;;;;;4978433;28;20038;-83
2022/07/01 08:09:55;;;;;;;3.33;0.60;;;25.70;61.70;;;;;;4980427;28;20105;-87
2022/07/01 08:12:22;;;;;;;3.67;0.40;;;26.10;56.50;;;;;;4982416;28;20041;-83
2022/07/01 08:14:48;;;;;;;2.47;0.65;;;27.70;58.00;;;;;;4983515;28;20430;-84
2022/07/01 08:17:13;;;;;;;4.10;0.68;;;30.50;47.10;;;;;;4983081;28;20034;-85
2022/07/01 08:19:39;;;;;;;2.03;0.55;;;32.80;43.20;;;;;;4985200;28;21314;-85
2022/07/01 08:22:06;;;;;;;2.67;0.60;;;34.50;39.00;;;;;;4987906;28;20038;-84
2022/07/01 08:24:32;;;;;;;2.92;0.50;;;36.50;39.90;;;;;;4977190;28;20038;-85
2022/07/01 08:26:57;;;;;;;1.52;0.25;;;37.60;34.70;;;;;;4980708;28;20058;-85
2022/07/01 08:29:23;;;;;;;2.88;0.57;;;36.50;32.20;;;;;;4974951;28;20537;-85
2022/07/01 08:31:49;;;;;;;3.45;0.30;;;35.60;34.10;;;;;;4977535;28;20189;-83
2022/07/01 08:34:15;;;;;;;3.15;0.43;;;35.90;36.50;;;;;;4986828;28;20027;-84
2022/07/01 08:36:41;;;;;;;2.40;0.50;;;37.30;35.00;;;;;;4985565;28;20030;-86
2022/07/01 08:39:06;;;;;;;2.67;0.40;;;37.50;33.80;;;;;;4981676;28;20039;-85
2022/07/01 08:41:32;;;;;;;1.85;0.47;;;36.40;32.40;;;;;;4987171;28;20038;-84
2022/07/01 08:43:58;;;;;;;2.40;0.32;;;33.80;35.80;;;;;;4982431;28;20037;-83
2022/07/01 08:46:26;;;;;;;2.40;0.30;;;30.30;39.50;;;;;;4989682;28;20039;-82
2022/07/01 08:48:53;;;;;;;2.58;0.30;;;28.80;45.10;;;;;;4989618;28;20097;-81
2022/07/01 08:51:18;;;;;;;1.13;0.68;;;27.60;46.50;;;;;;4992227;28;20034;-86
2022/07/01 08:53:44;;;;;;;2.67;0.30;;;31.30;45.20;;;;;;4988122;28;20052;-84
2022/07/01 08:58:55;;;;;;;1.73;0.60;;;34.10;34.30;;;;;;4989246;28;20049;-87
2022/07/01 09:01:23;;;;;;;2.78;0.45;;;35.10;37.20;;;;;;4983441;28;20873;-86
2022/07/01 09:03:52;;;;;;;0.95;0.40;;;35.00;34.60;;;;;;4977992;28;20045;-86
2022/07/01 09:06:28;;;;;;;1.13;0.40;;;34.40;34.10;;;;;;4980969;28;20647;-87
2022/07/01 09:08:54;;;;;;;1.13;0.30;;;33.30;36.60;;;;;;4980893;28;20034;-85
2022/07/01 09:11:20;;;;;;;1.15;0.20;;;33.10;38.60;;;;;;4989457;28;20027;-87
2022/07/01 09:14:24;;;;;;;5.10;0.32;;;32.00;39.80;;;;;;4990119;28;20066;-83
2022/07/01 09:16:52;;;;;;;1.33;0.40;;;29.90;37.80;;;;;;4992009;28;20053;-84
2022/07/01 09:19:20;;;;;;;3.55;0.50;;;31.30;44.50;;;;;;4985138;28;20098;-84
2022/07/01 09:21:58;;;;;;;1.85;0.32;;;30.20;42.40;;;;;;4984608;28;20041;-85
2022/07/01 09:24:27;;;;;;;0.65;0.30;;;28.50;43.70;;;;;;4995301;28;20429;-85
2022/07/01 09:26:57;;;;;;;2.47;0.30;;;25.90;48.20;;;;;;4988036;28;20042;-82
2022/07/01 09:29:32;;;;;;;2.80;0.60;;;24.90;55.90;;;;;;4989986;28;20121;-86
2022/07/01 09:32:00;;;;;;;3.85;0.95;;;23.80;65.90;;;;;;4987017;28;20033;-88
2022/07/01 09:34:25;;;;;;;2.28;0.73;;;23.10;77.30;;;;;;4999096;28;20034;-86
2022/07/01 09:36:56;;;;;;;2.35;0.50;;;24.70;78.60;;;;;;4991121;28;20045;-86
2022/07/01 09:39:22;;;;;;;3.27;0.90;;;26.70;55.80;;;;;;4989523;28;20065;-81
2022/07/01 09:41:48;;;;;;;4.03;0.60;;;26.60;55.40;;;;;;4986899;28;20359;-84
2022/07/01 09:44:13;;;;;;;5.10;0.70;;;26.40;58.70;;;;;;4986634;28;20496;-90
2022/07/01 09:46:52;;;;;;;2.42;0.47;;;27.90;55.40;;;;;;4989707;28;20091;-82
2022/07/01 09:49:18;;;;;;;3.33;0.82;;;29.40;56.20;;;;;;4990310;28;20042;-84
2022/07/01 09:51:44;;;;;;;2.03;0.65;;;30.70;45.60;;;;;;4994379;28;20040;-84
2022/07/01 09:54:12;;;;;;;3.05;0.80;;;31.30;45.40;;;;;;4987343;28;20021;-81
2022/07/01 09:56:38;;;;;;;3.15;0.50;;;29.20;43.60;;;;;;4986958;28;20055;-87
2022/07/01 09:59:04;;;;;;;6.55;0.85;;;26.90;48.50;;;;;;4987849;28;20048;-83
2022/07/01 10:01:32;;;;;;;2.80;0.55;;;26.00;55.90;;;;;;4991105;28;20037;-83
2022/07/01 10:03:59;;;;;;;4.85;0.82;;;27.00;53.10;;;;;;4988425;28;20048;-82
2022/07/01 10:06:27;;;;;;;2.90;0.60;;;26.90;55.40;;;;;;4982523;28;20577;-81
2022/07/01 10:08:56;;;;;;;6.20;0.95;;;28.40;55.00;;;;;;4982064;28;20314;-83
2022/07/01 10:11:37;;;;;;;2.80;1.08;;;28.00;48.00;;;;;;4981330;28;20041;-83
2022/07/01 10:14:07;;;;;;;4.00;0.68;;;26.70;51.40;;;;;;4982486;28;20041;-87
2022/07/01 10:16:36;;;;;;;6.05;1.02;;;24.30;60.70;;;;;;4981352;28;20041;-81
2022/07/01 10:19:20;;;;;;;5.32;1.60;;;22.30;84.70;;;;;;4978696;28;20204;-81
2022/07/01 10:21:46;;;;;;;6.93;1.77;;;21.00;99.90;;;;;;4989714;28;20064;-89
2022/07/01 10:24:18;;;;;;;5.30;1.40;;;20.10;99.90;;;;;;4982774;28;20049;-86
2022/07/01 10:26:45;;;;;;;3.70;0.90;;;19.30;99.90;;;;;;4986877;28;20034;-83
2022/07/01 10:29:34;;;;;;;5.65;1.45;;;18.80;99.90;;;;;;4985675;28;20049;-82
2022/07/01 10:32:24;;;;;;;6.03;1.30;;;18.40;99.90;;;;;;4986015;28;20040;-83
2022/07/01 10:35:02;;;;;;;7.00;1.37;;;18.20;99.90;;;;;;4984911;28;20504;-82
2022/07/01 10:37:27;;;;;;;5.35;1.35;;;18.00;99.90;;;;;;4981705;28;20416;-81
2022/07/01 10:40:00;;;;;;;5.63;0.90;;;18.10;99.90;;;;;;4985268;28;20316;-84
2022/07/01 10:42:36;;;;;;;7.35;1.15;;;18.40;99.90;;;;;;4979253;28;20557;-79
2022/07/01 10:45:04;;;;;;;7.18;1.15;;;18.80;99.90;;;;;;4973833;28;20042;-81
2022/07/01 10:47:30;;;;;;;1.83;0.60;;;19.70;99.90;;;;;;4975426;28;20129;-80
2022/07/01 10:50:08;;;;;;;3.08;0.77;;;20.40;99.90;;;;;;4972259;28;20126;-80
2022/07/01 10:52:33;;;;;;;2.50;0.70;;;22.40;99.90;;;;;;4969589;28;20037;-78
2022/07/01 10:55:01;;;;;;;4.65;0.70;;;23.60;95.50;;;;;;4966835;28;20054;-82
2022/07/01 10:57:30;;;;;;;4.30;0.75;;;23.00;99.40;;;;;;4971296;28;20026;-82
2022/07/01 11:00:16;;;;;;;4.20;1.02;;;22.50;99.90;;;;;;4985550;28;20090;-82
2022/07/01 11:02:42;;;;;;;5.85;0.70;;;22.30;99.70;;;;;;4967440;28;20095;-84
2022/07/01 11:05:09;;;;;;;2.58;0.57;;;23.20;99.90;;;;;;4969931;28;20055;-80
2022/07/01 11:07:42;;;;;;;3.08;0.50;;;24.80;98.50;;;;;;4968268;28;20069;-84
2022/07/01 11:10:15;;;;;;;4.43;0.90;;;26.40;95.90;;;;;;4976460;28;20533;-87
2022/07/01 11:12:43;;;;;;;3.20;0.80;;;27.60;73.00;;;;;;4961037;28;20034;-75
2022/07/01 11:15:10;;;;;;;2.95;0.63;;;28.20;81.30;;;;;;4957148;28;20130;-74
2022/07/01 11:17:42;;;;;;;3.30;0.65;;;28.60;60.90;;;;;;4956958;28;20077;-75
2022/07/01 11:20:09;;;;;;;8.50;1.10;;;27.40;62.30;;;;;;4956313;28;20038;-74
2022/07/01 11:22:35;;;;;;;5.75;1.20;;;27.40;68.00;;;;;;4956886;28;20109;-74
2022/07/01 11:25:06;;;;;;;7.32;1.00;;;26.70;65.00;;;;;;4955197;28;20039;-74
2022/07/01 11:27:33;;;;;;;4.60;0.55;;;26.10;70.00;;;;;;4955244;28;20046;-75
2022/07/01 11:30:01;;;;;;;3.58;0.68;;;26.40;75.30;;;;;;4958083;28;20035;-75
2022/07/01 11:32:32;;;;;;;2.83;0.88;;;26.80;68.20;;;;;;4955753;28;20053;-75
2022/07/01 11:35:01;;;;;;;4.53;0.63;;;26.70;64.40;;;;;;4958916;28;20145;-74
2022/07/01 11:40:18;;;;;;;7.45;1.02;;;26.20;78.40;;;;;;4957286;28;20034;-74
2022/07/01 11:42:45;;;;;;;4.65;1.02;;;25.80;80.50;;;;;;4957755;28;20039;-74
2022/07/01 11:45:23;;;;;;;3.80;0.98;;;25.70;87.10;;;;;;4959606;28;20037;-74
2022/07/01 11:47:49;;;;;;;3.63;0.82;;;26.40;83.60;;;;;;4960493;28;20062;-73
2022/07/01 11:50:15;;;;;;;6.95;1.15;;;26.80;88.80;;;;;;4949305;28;20018;-74
2022/07/01 11:52:41;;;;;;;2.80;0.70;;;26.80;91.50;;;;;;4957907;28;20362;-74
2022/07/01 11:55:08;;;;;;;3.85;0.90;;;26.60;62.00;;;;;;4964970;28;20841;-74
2022/07/01 11:57:34;;;;;;;3.28;0.50;;;26.80;87.70;;;;;;4968444;28;20030;-75
2022/07/01 12:00:09;;;;;;;4.40;0.60;;;27.30;78.80;;;;;;4961557;28;20148;-74
2022/07/01 12:02:35;;;;;;;3.13;0.60;;;27.00;66.90;;;;;;4971515;28;20147;-74
2022/07/01 12:05:02;;;;;;;3.13;0.90;;;25.80;65.30;;;;;;4967694;28;20378;-73
2022/07/01 12:07:28;;;;;;;3.75;0.57;;;25.60;71.80;;;;;;4971153;28;20046;-74
2022/07/01 12:09:53;;;;;;;4.20;1.45;;;25.30;72.90;;;;;;4975750;28;20042;-74
2022/07/01 12:12:22;;;;;;;3.28;0.73;;;25.00;86.50;;;;;;4972346;28;20030;-74
2022/07/01 12:14:52;;;;;;;7.63;1.20;;;24.50;68.70;;;;;;4967679;28;20088;-74
2022/07/01 12:17:18;;;;;;;4.18;1.00;;;24.50;87.50;;;;;;4964142;28;20030;-73
2022/07/01 12:19:47;;;;;;;6.88;1.40;;;24.00;92.50;;;;;;4962918;28;20037;-74
2022/07/01 12:22:24;;;;;;;5.57;0.60;;;23.80;92.70;;;;;;4957539;28;20035;-73
2022/07/01 12:24:52;;;;;;;3.40;1.05;;;23.80;83.70;;;;;;4965040;28;20106;-73
2022/07/01 12:27:20;;;;;;;4.95;2.03;;;23.50;86.40;;;;;;4956030;28;20062;-74
2022/07/01 12:29:46;;;;;;;5.30;1.33;;;23.50;94.30;;;;;;4959324;28;20018;-74
2022/07/01 12:32:14;;;;;;;2.33;0.63;;;23.70;92.70;;;;;;4969997;28;20038;-73
2022/07/01 12:34:41;;;;;;;4.63;1.00;;;23.80;91.30;;;;;;4967880;28;20038;-73
2022/07/01 12:37:26;;;;;;;4.38;0.95;;;23.50;89.10;;;;;;4964519;28;20045;-73
2022/07/01 12:39:53;;;;;;;2.90;0.80;;;23.30;87.60;;;;;;4967836;28;20038;-72
2022/07/01 12:42:42;;;;;;;5.82;1.30;;;22.90;95.00;;;;;;4966362;28;21189;-74
2022/07/01 12:45:11;;;;;;;3.40;0.93;;;22.90;96.00;;;;;;4967901;28;20144;-73
2022/07/01 12:48:05;;;;;;;4.10;1.13;;;22.70;92.60;;;;;;4961945;28;20030;-73
2022/07/01 12:50:35;;;;;;;4.03;0.70;;;22.70;94.10;;;;;;4969701;28;20537;-72
2022/07/01 12:53:03;;;;;;;6.03;0.75;;;22.80;90.20;;;;;;4970573;28;20081;-73
2022/07/01 12:55:35;;;;;;;2.90;0.75;;;22.70;92.30;;;;;;4969380;28;20041;-71
2022/07/01 12:58:03;;;;;;;5.85;1.05;;;22.80;96.00;;;;;;4968798;28;20050;-72
2022/07/01 13:00:30;;;;;;;6.88;1.00;;;22.50;92.80;;;;;;4970222;28;20075;-72
2022/07/01 13:03:12;;;;;;;4.96;0.82;;;22.30;96.10;;;;;;4830846;28;10001204;-72
2022/07/01 13:05:39;;;;;;;6.40;1.05;;;22.40;96.20;;;;;;4620014;28;10001459;-72